sensor_id;sensor_type;location;lat;lon;timestamp;P1;durP1;ratioP1;P2;durP2;ratioP2
70122;SDS011;57489;37.404;24.920;2023-06-14T00:01:48;4.57;;;2.20;;
70122;SDS011;57489;37.404;24.920;2023-06-14T00:06:48;7.63;;;2.70;;
70122;SDS011;57489;37.404;24.920;2023-06-14T00:11:49;5.67;;;2.20;;
70122;SDS011;57489;37.404;24.920;2023-06-14T00:16:49;6.93;;;2.38;;
70122;SDS011;57489;37.404;24.920;2023-06-14T00:21:50;4.77;;;2.50;;
70122;SDS011;57489;37.404;24.920;2023-06-14T00:26:50;6.60;;;2.63;;
70122;SDS011;57489;37.404;24.920;2023-06-14T00:31:51;4.27;;;2.00;;
70122;SDS011;57489;37.404;24.920;2023-06-14T00:36:51;4.47;;;2.07;;
70122;SDS011;57489;37.404;24.920;2023-06-14T00:41:52;5.50;;;2.43;;
70122;SDS011;57489;37.404;24.920;2023-06-14T00:46:52;6.03;;;2.40;;
70122;SDS011;57489;37.404;24.920;2023-06-14T00:51:53;4.87;;;2.50;;
70122;SDS011;57489;37.404;24.920;2023-06-14T00:56:53;5.07;;;2.13;;
70122;SDS011;57489;37.404;24.920;2023-06-14T01:01:54;5.37;;;2.30;;
70122;SDS011;57489;37.404;24.920;2023-06-14T01:12:07;4.68;;;2.15;;
70122;SDS011;57489;37.404;24.920;2023-06-14T01:17:15;6.00;;;1.77;;
70122;SDS011;57489;37.404;24.920;2023-06-14T01:22:16;4.60;;;2.00;;
70122;SDS011;57489;37.404;24.920;2023-06-14T01:27:16;4.40;;;2.07;;
70122;SDS011;57489;37.404;24.920;2023-06-14T01:32:17;4.33;;;2.33;;
70122;SDS011;57489;37.404;24.920;2023-06-14T01:37:19;4.38;;;2.05;;
70122;SDS011;57489;37.404;24.920;2023-06-14T01:42:21;5.17;;;2.20;;
70122;SDS011;57489;37.404;24.920;2023-06-14T01:47:23;5.35;;;2.35;;
70122;SDS011;57489;37.404;24.920;2023-06-14T01:52:24;4.30;;;2.28;;
70122;SDS011;57489;37.404;24.920;2023-06-14T01:57:25;6.47;;;2.50;;
70122;SDS011;57489;37.404;24.920;2023-06-14T02:02:25;5.17;;;1.97;;
70122;SDS011;57489;37.404;24.920;2023-06-14T02:07:26;4.30;;;2.23;;
70122;SDS011;57489;37.404;24.920;2023-06-14T02:12:26;4.40;;;2.03;;
70122;SDS011;57489;37.404;24.920;2023-06-14T02:17:26;4.18;;;2.00;;
70122;SDS011;57489;37.404;24.920;2023-06-14T02:22:27;4.50;;;1.93;;
70122;SDS011;57489;37.404;24.920;2023-06-14T02:27:27;5.33;;;2.00;;
70122;SDS011;57489;37.404;24.920;2023-06-14T02:32:28;5.57;;;2.77;;
70122;SDS011;57489;37.404;24.920;2023-06-14T02:37:28;5.37;;;2.07;;
70122;SDS011;57489;37.404;24.920;2023-06-14T02:42:29;4.53;;;2.10;;
70122;SDS011;57489;37.404;24.920;2023-06-14T02:47:29;4.63;;;1.93;;
70122;SDS011;57489;37.404;24.920;2023-06-14T02:52:30;4.60;;;1.97;;
70122;SDS011;57489;37.404;24.920;2023-06-14T02:57:30;4.40;;;2.50;;
70122;SDS011;57489;37.404;24.920;2023-06-14T03:02:31;4.20;;;2.10;;
70122;SDS011;57489;37.404;24.920;2023-06-14T03:07:31;3.97;;;1.97;;
70122;SDS011;57489;37.404;24.920;2023-06-14T03:12:31;4.70;;;2.17;;
70122;SDS011;57489;37.404;24.920;2023-06-14T03:17:32;4.03;;;2.10;;
70122;SDS011;57489;37.404;24.920;2023-06-14T03:22:32;4.97;;;2.10;;
70122;SDS011;57489;37.404;24.920;2023-06-14T03:27:33;5.00;;;2.13;;
70122;SDS011;57489;37.404;24.920;2023-06-14T03:32:33;4.10;;;2.30;;
70122;SDS011;57489;37.404;24.920;2023-06-14T03:37:34;5.93;;;2.07;;
70122;SDS011;57489;37.404;24.920;2023-06-14T03:42:34;5.27;;;2.30;;
70122;SDS011;57489;37.404;24.920;2023-06-14T03:47:35;6.77;;;2.10;;
70122;SDS011;57489;37.404;24.920;2023-06-14T03:52:35;5.35;;;2.17;;
70122;SDS011;57489;37.404;24.920;2023-06-14T03:57:36;5.00;;;2.00;;
70122;SDS011;57489;37.404;24.920;2023-06-14T04:02:36;6.00;;;2.27;;
70122;SDS011;57489;37.404;24.920;2023-06-14T04:07:37;5.47;;;2.50;;
70122;SDS011;57489;37.404;24.920;2023-06-14T04:12:37;5.83;;;2.50;;
70122;SDS011;57489;37.404;24.920;2023-06-14T04:17:37;4.43;;;2.10;;
70122;SDS011;57489;37.404;24.920;2023-06-14T04:22:38;3.60;;;2.10;;
70122;SDS011;57489;37.404;24.920;2023-06-14T04:27:38;7.87;;;2.97;;
70122;SDS011;57489;37.404;24.920;2023-06-14T04:32:39;6.13;;;2.58;;
70122;SDS011;57489;37.404;24.920;2023-06-14T04:37:39;6.00;;;2.57;;
70122;SDS011;57489;37.404;24.920;2023-06-14T04:42:40;6.60;;;2.77;;
70122;SDS011;57489;37.404;24.920;2023-06-14T04:47:40;8.93;;;3.40;;
70122;SDS011;57489;37.404;24.920;2023-06-14T04:52:41;10.63;;;4.00;;
70122;SDS011;57489;37.404;24.920;2023-06-14T04:57:41;10.57;;;3.70;;
70122;SDS011;57489;37.404;24.920;2023-06-14T05:02:42;7.77;;;3.57;;
70122;SDS011;57489;37.404;24.920;2023-06-14T05:07:42;9.43;;;3.67;;
70122;SDS011;57489;37.404;24.920;2023-06-14T05:12:43;9.00;;;4.20;;
70122;SDS011;57489;37.404;24.920;2023-06-14T05:17:45;10.00;;;3.47;;
70122;SDS011;57489;37.404;24.920;2023-06-14T05:22:46;6.53;;;2.97;;
70122;SDS011;57489;37.404;24.920;2023-06-14T05:27:46;11.03;;;3.63;;
70122;SDS011;57489;37.404;24.920;2023-06-14T05:32:47;9.68;;;2.92;;
70122;SDS011;57489;37.404;24.920;2023-06-14T05:37:48;5.70;;;2.60;;
70122;SDS011;57489;37.404;24.920;2023-06-14T05:42:48;9.80;;;2.93;;
70122;SDS011;57489;37.404;24.920;2023-06-14T05:47:49;6.83;;;2.73;;
70122;SDS011;57489;37.404;24.920;2023-06-14T05:52:49;6.27;;;2.40;;
70122;SDS011;57489;37.404;24.920;2023-06-14T05:57:50;11.40;;;3.00;;
70122;SDS011;57489;37.404;24.920;2023-06-14T06:02:50;7.53;;;2.73;;
70122;SDS011;57489;37.404;24.920;2023-06-14T06:07:50;8.43;;;3.10;;
70122;SDS011;57489;37.404;24.920;2023-06-14T06:12:51;5.47;;;2.50;;
70122;SDS011;57489;37.404;24.920;2023-06-14T06:17:52;8.00;;;3.00;;
70122;SDS011;57489;37.404;24.920;2023-06-14T06:22:52;7.00;;;2.33;;
70122;SDS011;57489;37.404;24.920;2023-06-14T06:27:53;8.30;;;2.83;;
70122;SDS011;57489;37.404;24.920;2023-06-14T06:32:54;6.80;;;2.73;;
70122;SDS011;57489;37.404;24.920;2023-06-14T06:37:55;9.17;;;2.93;;
70122;SDS011;57489;37.404;24.920;2023-06-14T06:42:55;5.13;;;2.23;;
70122;SDS011;57489;37.404;24.920;2023-06-14T06:47:57;6.37;;;2.80;;
70122;SDS011;57489;37.404;24.920;2023-06-14T06:52:58;5.93;;;2.50;;
70122;SDS011;57489;37.404;24.920;2023-06-14T06:57:58;6.60;;;2.57;;
70122;SDS011;57489;37.404;24.920;2023-06-14T07:02:59;9.05;;;2.20;;
70122;SDS011;57489;37.404;24.920;2023-06-14T07:07:59;6.33;;;2.27;;
70122;SDS011;57489;37.404;24.920;2023-06-14T07:13:00;5.47;;;2.63;;
70122;SDS011;57489;37.404;24.920;2023-06-14T07:18:00;5.13;;;2.07;;
70122;SDS011;57489;37.404;24.920;2023-06-14T07:23:01;5.03;;;2.17;;
70122;SDS011;57489;37.404;24.920;2023-06-14T07:28:01;4.93;;;2.80;;
70122;SDS011;57489;37.404;24.920;2023-06-14T07:33:02;7.32;;;2.30;;
70122;SDS011;57489;37.404;24.920;2023-06-14T07:38:02;5.87;;;2.70;;
70122;SDS011;57489;37.404;24.920;2023-06-14T07:43:03;4.90;;;2.20;;
70122;SDS011;57489;37.404;24.920;2023-06-14T07:48:03;5.77;;;2.73;;
70122;SDS011;57489;37.404;24.920;2023-06-14T07:53:04;5.00;;;2.20;;
70122;SDS011;57489;37.404;24.920;2023-06-14T07:58:05;4.57;;;2.30;;
70122;SDS011;57489;37.404;24.920;2023-06-14T08:03:06;6.13;;;2.60;;
70122;SDS011;57489;37.404;24.920;2023-06-14T08:08:06;5.37;;;2.40;;
70122;SDS011;57489;37.404;24.920;2023-06-14T08:13:07;4.70;;;2.33;;
70122;SDS011;57489;37.404;24.920;2023-06-14T08:18:10;5.80;;;2.80;;
70122;SDS011;57489;37.404;24.920;2023-06-14T08:23:10;5.03;;;2.57;;
70122;SDS011;57489;37.404;24.920;2023-06-14T08:28:11;5.43;;;2.87;;
70122;SDS011;57489;37.404;24.920;2023-06-14T08:33:11;4.80;;;2.57;;
70122;SDS011;57489;37.404;24.920;2023-06-14T08:38:12;4.90;;;2.70;;
70122;SDS011;57489;37.404;24.920;2023-06-14T08:43:12;5.00;;;2.70;;
70122;SDS011;57489;37.404;24.920;2023-06-14T08:48:13;5.60;;;2.70;;
70122;SDS011;57489;37.404;24.920;2023-06-14T08:53:14;4.13;;;2.17;;
70122;SDS011;57489;37.404;24.920;2023-06-14T08:58:15;7.50;;;2.38;;
70122;SDS011;57489;37.404;24.920;2023-06-14T09:03:15;4.40;;;2.27;;
70122;SDS011;57489;37.404;24.920;2023-06-14T09:08:16;4.97;;;2.70;;
70122;SDS011;57489;37.404;24.920;2023-06-14T09:13:16;5.80;;;2.60;;
70122;SDS011;57489;37.404;24.920;2023-06-14T09:18:17;5.75;;;2.15;;
70122;SDS011;57489;37.404;24.920;2023-06-14T09:23:21;5.40;;;2.57;;
70122;SDS011;57489;37.404;24.920;2023-06-14T09:28:26;4.15;;;1.88;;
70122;SDS011;57489;37.404;24.920;2023-06-14T09:33:27;4.57;;;2.10;;
70122;SDS011;57489;37.404;24.920;2023-06-14T09:38:27;4.97;;;2.37;;
70122;SDS011;57489;37.404;24.920;2023-06-14T09:43:28;3.70;;;2.10;;
70122;SDS011;57489;37.404;24.920;2023-06-14T09:48:28;5.83;;;2.60;;
70122;SDS011;57489;37.404;24.920;2023-06-14T09:53:29;5.03;;;2.17;;
70122;SDS011;57489;37.404;24.920;2023-06-14T09:58:30;4.30;;;1.98;;
70122;SDS011;57489;37.404;24.920;2023-06-14T10:03:37;4.18;;;1.80;;
70122;SDS011;57489;37.404;24.920;2023-06-14T10:08:39;4.47;;;2.07;;
70122;SDS011;57489;37.404;24.920;2023-06-14T10:13:40;7.53;;;2.13;;
70122;SDS011;57489;37.404;24.920;2023-06-14T10:19:01;5.40;;;2.00;;
70122;SDS011;57489;37.404;24.920;2023-06-14T10:24:10;6.70;;;2.67;;
70122;SDS011;57489;37.404;24.920;2023-06-14T10:29:15;7.20;;;2.60;;
70122;SDS011;57489;37.404;24.920;2023-06-14T10:34:23;8.60;;;2.17;;
70122;SDS011;57489;37.404;24.920;2023-06-14T10:39:24;6.73;;;2.30;;
70122;SDS011;57489;37.404;24.920;2023-06-14T10:54:55;4.30;;;2.33;;
70122;SDS011;57489;37.404;24.920;2023-06-14T11:00:15;7.25;;;2.58;;
70122;SDS011;57489;37.404;24.920;2023-06-14T11:05:20;7.43;;;2.40;;
70122;SDS011;57489;37.404;24.920;2023-06-14T11:10:37;10.23;;;2.50;;
70122;SDS011;57489;37.404;24.920;2023-06-14T11:15:43;5.82;;;2.33;;
70122;SDS011;57489;37.404;24.920;2023-06-14T11:20:46;5.45;;;2.45;;
70122;SDS011;57489;37.404;24.920;2023-06-14T11:25:52;5.80;;;2.63;;
70122;SDS011;57489;37.404;24.920;2023-06-14T11:30:59;6.60;;;2.53;;
70122;SDS011;57489;37.404;24.920;2023-06-14T11:36:05;6.68;;;2.58;;
70122;SDS011;57489;37.404;24.920;2023-06-14T11:41:06;7.43;;;2.70;;
70122;SDS011;57489;37.404;24.920;2023-06-14T11:46:12;5.67;;;2.40;;
70122;SDS011;57489;37.404;24.920;2023-06-14T11:51:13;5.37;;;2.40;;
70122;SDS011;57489;37.404;24.920;2023-06-14T11:56:14;6.20;;;2.50;;
70122;SDS011;57489;37.404;24.920;2023-06-14T12:01:18;12.98;;;3.10;;
70122;SDS011;57489;37.404;24.920;2023-06-14T12:06:28;5.83;;;2.93;;
70122;SDS011;57489;37.404;24.920;2023-06-14T12:11:34;7.63;;;3.25;;
70122;SDS011;57489;37.404;24.920;2023-06-14T12:16:36;11.38;;;3.42;;
70122;SDS011;57489;37.404;24.920;2023-06-14T12:21:38;10.40;;;3.27;;
70122;SDS011;57489;37.404;24.920;2023-06-14T12:26:39;8.35;;;3.60;;
70122;SDS011;57489;37.404;24.920;2023-06-14T12:31:41;5.38;;;2.60;;
70122;SDS011;57489;37.404;24.920;2023-06-14T12:36:41;5.93;;;2.97;;
70122;SDS011;57489;37.404;24.920;2023-06-14T12:41:42;5.80;;;3.23;;
70122;SDS011;57489;37.404;24.920;2023-06-14T12:46:43;6.03;;;2.80;;
70122;SDS011;57489;37.404;24.920;2023-06-14T12:51:43;6.50;;;3.20;;
70122;SDS011;57489;37.404;24.920;2023-06-14T12:56:44;5.57;;;3.30;;
70122;SDS011;57489;37.404;24.920;2023-06-14T13:01:44;7.57;;;3.33;;
70122;SDS011;57489;37.404;24.920;2023-06-14T13:06:45;5.43;;;2.70;;
70122;SDS011;57489;37.404;24.920;2023-06-14T13:11:45;5.50;;;3.10;;
70122;SDS011;57489;37.404;24.920;2023-06-14T13:16:46;6.23;;;2.90;;
70122;SDS011;57489;37.404;24.920;2023-06-14T13:21:46;5.73;;;3.30;;
70122;SDS011;57489;37.404;24.920;2023-06-14T13:26:47;6.57;;;3.40;;
70122;SDS011;57489;37.404;24.920;2023-06-14T13:31:47;7.20;;;3.33;;
70122;SDS011;57489;37.404;24.920;2023-06-14T13:36:48;7.53;;;3.67;;
70122;SDS011;57489;37.404;24.920;2023-06-14T13:41:49;6.88;;;3.78;;
70122;SDS011;57489;37.404;24.920;2023-06-14T13:46:50;9.27;;;4.03;;
70122;SDS011;57489;37.404;24.920;2023-06-14T13:51:50;7.53;;;4.40;;
70122;SDS011;57489;37.404;24.920;2023-06-14T13:56:51;7.03;;;4.33;;
70122;SDS011;57489;37.404;24.920;2023-06-14T14:01:51;8.93;;;4.07;;
70122;SDS011;57489;37.404;24.920;2023-06-14T14:06:52;6.93;;;4.00;;
70122;SDS011;57489;37.404;24.920;2023-06-14T14:11:52;6.97;;;3.63;;
70122;SDS011;57489;37.404;24.920;2023-06-14T14:16:53;9.03;;;3.30;;
70122;SDS011;57489;37.404;24.920;2023-06-14T14:21:53;7.13;;;3.40;;
70122;SDS011;57489;37.404;24.920;2023-06-14T14:26:54;10.57;;;3.17;;
70122;SDS011;57489;37.404;24.920;2023-06-14T14:31:55;7.57;;;2.43;;
70122;SDS011;57489;37.404;24.920;2023-06-14T14:36:56;6.30;;;2.60;;
70122;SDS011;57489;37.404;24.920;2023-06-14T14:41:56;7.20;;;2.88;;
70122;SDS011;57489;37.404;24.920;2023-06-14T14:46:57;5.67;;;2.80;;
70122;SDS011;57489;37.404;24.920;2023-06-14T14:51:57;8.13;;;3.40;;
70122;SDS011;57489;37.404;24.920;2023-06-14T14:56:58;9.07;;;2.90;;
70122;SDS011;57489;37.404;24.920;2023-06-14T15:01:58;7.10;;;2.90;;
70122;SDS011;57489;37.404;24.920;2023-06-14T15:06:59;7.83;;;2.73;;
70122;SDS011;57489;37.404;24.920;2023-06-14T15:11:59;9.43;;;2.87;;
70122;SDS011;57489;37.404;24.920;2023-06-14T15:17:00;7.93;;;2.63;;
70122;SDS011;57489;37.404;24.920;2023-06-14T15:22:00;6.63;;;2.67;;
70122;SDS011;57489;37.404;24.920;2023-06-14T15:27:00;10.43;;;2.63;;
70122;SDS011;57489;37.404;24.920;2023-06-14T15:32:01;8.40;;;3.10;;
70122;SDS011;57489;37.404;24.920;2023-06-14T15:37:02;4.90;;;2.70;;
70122;SDS011;57489;37.404;24.920;2023-06-14T15:42:02;11.23;;;3.67;;
70122;SDS011;57489;37.404;24.920;2023-06-14T15:47:03;5.10;;;2.30;;
70122;SDS011;57489;37.404;24.920;2023-06-14T15:52:04;7.37;;;2.80;;
70122;SDS011;57489;37.404;24.920;2023-06-14T15:57:05;8.23;;;3.33;;
70122;SDS011;57489;37.404;24.920;2023-06-14T16:02:05;18.03;;;5.23;;
70122;SDS011;57489;37.404;24.920;2023-06-14T16:07:06;26.30;;;6.07;;
70122;SDS011;57489;37.404;24.920;2023-06-14T16:12:07;15.40;;;5.20;;
70122;SDS011;57489;37.404;24.920;2023-06-14T16:17:08;12.63;;;3.67;;
70122;SDS011;57489;37.404;24.920;2023-06-14T16:22:09;7.73;;;3.00;;
70122;SDS011;57489;37.404;24.920;2023-06-14T16:27:09;6.33;;;2.97;;
70122;SDS011;57489;37.404;24.920;2023-06-14T16:32:10;8.33;;;2.63;;
70122;SDS011;57489;37.404;24.920;2023-06-14T16:37:10;7.03;;;2.05;;
70122;SDS011;57489;37.404;24.920;2023-06-14T16:42:11;4.93;;;2.00;;
70122;SDS011;57489;37.404;24.920;2023-06-14T16:47:11;4.10;;;2.00;;
70122;SDS011;57489;37.404;24.920;2023-06-14T16:52:12;4.73;;;2.17;;
70122;SDS011;57489;37.404;24.920;2023-06-14T16:57:12;6.50;;;2.30;;
70122;SDS011;57489;37.404;24.920;2023-06-14T17:02:13;4.40;;;2.47;;
70122;SDS011;57489;37.404;24.920;2023-06-14T17:07:13;8.93;;;2.37;;
70122;SDS011;57489;37.404;24.920;2023-06-14T17:12:14;4.80;;;2.03;;
70122;SDS011;57489;37.404;24.920;2023-06-14T17:17:14;4.47;;;2.37;;
70122;SDS011;57489;37.404;24.920;2023-06-14T17:22:15;4.03;;;1.63;;
70122;SDS011;57489;37.404;24.920;2023-06-14T17:27:15;4.53;;;1.87;;
70122;SDS011;57489;37.404;24.920;2023-06-14T17:32:16;3.67;;;1.90;;
70122;SDS011;57489;37.404;24.920;2023-06-14T17:37:16;3.70;;;1.57;;
70122;SDS011;57489;37.404;24.920;2023-06-14T17:42:16;4.53;;;1.90;;
70122;SDS011;57489;37.404;24.920;2023-06-14T17:47:17;4.63;;;1.97;;
70122;SDS011;57489;37.404;24.920;2023-06-14T17:52:17;4.27;;;2.00;;
70122;SDS011;57489;37.404;24.920;2023-06-14T17:57:18;3.20;;;1.30;;
70122;SDS011;57489;37.404;24.920;2023-06-14T18:02:18;3.93;;;2.00;;
70122;SDS011;57489;37.404;24.920;2023-06-14T18:07:19;4.77;;;2.37;;
70122;SDS011;57489;37.404;24.920;2023-06-14T18:12:19;5.10;;;1.87;;
70122;SDS011;57489;37.404;24.920;2023-06-14T18:17:20;3.43;;;1.67;;
70122;SDS011;57489;37.404;24.920;2023-06-14T18:22:20;5.75;;;1.80;;
70122;SDS011;57489;37.404;24.920;2023-06-14T18:27:21;5.57;;;1.90;;
70122;SDS011;57489;37.404;24.920;2023-06-14T18:32:21;5.37;;;1.97;;
70122;SDS011;57489;37.404;24.920;2023-06-14T18:37:22;8.40;;;2.03;;
70122;SDS011;57489;37.404;24.920;2023-06-14T18:42:22;4.60;;;1.90;;
70122;SDS011;57489;37.404;24.920;2023-06-14T18:47:23;6.73;;;2.07;;
70122;SDS011;57489;37.404;24.920;2023-06-14T18:52:24;7.97;;;2.05;;
70122;SDS011;57489;37.404;24.920;2023-06-14T18:57:24;5.97;;;2.83;;
70122;SDS011;57489;37.404;24.920;2023-06-14T19:02:25;5.63;;;1.80;;
70122;SDS011;57489;37.404;24.920;2023-06-14T19:07:25;5.23;;;1.77;;
70122;SDS011;57489;37.404;24.920;2023-06-14T19:12:26;4.97;;;2.10;;
70122;SDS011;57489;37.404;24.920;2023-06-14T19:17:26;3.97;;;2.07;;
70122;SDS011;57489;37.404;24.920;2023-06-14T19:22:27;7.22;;;2.58;;
70122;SDS011;57489;37.404;24.920;2023-06-14T19:27:28;5.53;;;2.23;;
70122;SDS011;57489;37.404;24.920;2023-06-14T19:32:28;3.77;;;1.80;;
70122;SDS011;57489;37.404;24.920;2023-06-14T19:37:28;4.37;;;2.43;;
70122;SDS011;57489;37.404;24.920;2023-06-14T19:42:29;4.40;;;1.80;;
70122;SDS011;57489;37.404;24.920;2023-06-14T19:47:29;5.87;;;2.00;;
70122;SDS011;57489;37.404;24.920;2023-06-14T19:52:30;4.72;;;1.88;;
70122;SDS011;57489;37.404;24.920;2023-06-14T19:57:30;4.30;;;1.87;;
70122;SDS011;57489;37.404;24.920;2023-06-14T20:02:31;3.17;;;1.50;;
70122;SDS011;57489;37.404;24.920;2023-06-14T20:07:31;5.53;;;2.10;;
70122;SDS011;57489;37.404;24.920;2023-06-14T20:12:32;3.57;;;1.40;;
70122;SDS011;57489;37.404;24.920;2023-06-14T20:17:32;3.70;;;1.90;;
70122;SDS011;57489;37.404;24.920;2023-06-14T20:22:33;4.60;;;1.60;;
70122;SDS011;57489;37.404;24.920;2023-06-14T20:27:34;3.97;;;1.70;;
70122;SDS011;57489;37.404;24.920;2023-06-14T20:32:35;5.90;;;1.77;;
70122;SDS011;57489;37.404;24.920;2023-06-14T20:37:36;5.77;;;1.90;;
70122;SDS011;57489;37.404;24.920;2023-06-14T20:42:36;4.50;;;1.90;;
70122;SDS011;57489;37.404;24.920;2023-06-14T20:47:37;6.47;;;1.93;;
70122;SDS011;57489;37.404;24.920;2023-06-14T20:52:38;8.83;;;1.80;;
70122;SDS011;57489;37.404;24.920;2023-06-14T20:57:38;5.75;;;1.92;;
70122;SDS011;57489;37.404;24.920;2023-06-14T21:02:39;4.93;;;2.00;;
70122;SDS011;57489;37.404;24.920;2023-06-14T21:07:40;4.10;;;1.58;;
70122;SDS011;57489;37.404;24.920;2023-06-14T21:12:40;3.60;;;1.63;;
70122;SDS011;57489;37.404;24.920;2023-06-14T21:17:41;6.70;;;1.80;;
70122;SDS011;57489;37.404;24.920;2023-06-14T21:22:42;4.40;;;2.00;;
70122;SDS011;57489;37.404;24.920;2023-06-14T21:27:42;3.90;;;1.67;;
70122;SDS011;57489;37.404;24.920;2023-06-14T21:32:43;3.05;;;1.77;;
70122;SDS011;57489;37.404;24.920;2023-06-14T21:37:43;4.07;;;1.80;;
70122;SDS011;57489;37.404;24.920;2023-06-14T21:42:44;3.50;;;1.67;;
70122;SDS011;57489;37.404;24.920;2023-06-14T21:47:44;4.90;;;1.85;;
70122;SDS011;57489;37.404;24.920;2023-06-14T21:52:45;3.57;;;1.67;;
70122;SDS011;57489;37.404;24.920;2023-06-14T21:57:45;4.23;;;1.97;;
70122;SDS011;57489;37.404;24.920;2023-06-14T22:02:46;3.60;;;1.60;;
70122;SDS011;57489;37.404;24.920;2023-06-14T22:07:46;4.40;;;2.10;;
70122;SDS011;57489;37.404;24.920;2023-06-14T22:12:47;5.87;;;2.23;;
70122;SDS011;57489;37.404;24.920;2023-06-14T22:17:47;6.55;;;2.45;;
70122;SDS011;57489;37.404;24.920;2023-06-14T22:22:48;5.23;;;2.20;;
70122;SDS011;57489;37.404;24.920;2023-06-14T22:27:48;4.43;;;2.00;;
70122;SDS011;57489;37.404;24.920;2023-06-14T22:32:49;4.63;;;2.27;;
70122;SDS011;57489;37.404;24.920;2023-06-14T22:37:49;4.03;;;2.00;;
70122;SDS011;57489;37.404;24.920;2023-06-14T22:42:50;3.50;;;1.63;;
70122;SDS011;57489;37.404;24.920;2023-06-14T22:47:50;4.47;;;2.17;;
70122;SDS011;57489;37.404;24.920;2023-06-14T22:52:51;3.90;;;1.92;;
70122;SDS011;57489;37.404;24.920;2023-06-14T22:57:51;3.73;;;1.80;;
70122;SDS011;57489;37.404;24.920;2023-06-14T23:02:52;5.00;;;2.73;;
70122;SDS011;57489;37.404;24.920;2023-06-14T23:07:52;4.33;;;2.10;;
70122;SDS011;57489;37.404;24.920;2023-06-14T23:12:53;5.30;;;2.43;;
70122;SDS011;57489;37.404;24.920;2023-06-14T23:17:53;4.10;;;2.10;;
70122;SDS011;57489;37.404;24.920;2023-06-14T23:22:54;4.33;;;2.40;;
70122;SDS011;57489;37.404;24.920;2023-06-14T23:27:54;3.80;;;2.03;;
70122;SDS011;57489;37.404;24.920;2023-06-14T23:32:55;4.00;;;2.40;;
70122;SDS011;57489;37.404;24.920;2023-06-14T23:37:55;5.10;;;2.47;;
70122;SDS011;57489;37.404;24.920;2023-06-14T23:42:56;5.07;;;2.00;;
70122;SDS011;57489;37.404;24.920;2023-06-14T23:47:56;3.97;;;2.30;;
70122;SDS011;57489;37.404;24.920;2023-06-14T23:52:57;4.83;;;2.50;;
70122;SDS011;57489;37.404;24.920;2023-06-14T23:57:57;4.30;;;2.30;;
